CARO2: North Fork Red, OK

Data processed at Thu Jan 04 2018 23:31


All information presented herein is the property of the government of the United States of America and may be revised or deleted at any time without prior notice.
Dissemination of this information without the expressed written consent of the Public Affairs Office, Tulsa District U.S. Army Corps of Engineers is strictly prohibited.
These data are gathered electronically and, as presented, have not undergone any form of quality control. These data are not guaranteed to be valid or correct.
Go to home page.
Go to station list.

Upstream stations:

Downstream station:
Previous Day
Next Day
Current Day
    
SHEF ID:       CARO2     North Fork Red River near Carter
STATION TYPE:  

               PRECIP     STAGE  RIV-FLOW  BAT-LOAD
                   in        ft       cfs      volt
              Ccp-Rev   Ccp-Rev   Ccp-Rev   Ccp-Rev
(US/Central)
01/02 00:00      0.00      5.85        35     12.49
01/02 01:00      0.00      6.10        64     12.49
01/02 02:00      0.00      6.32        96     12.41
01/02 03:00      0.00      6.33        97     12.41
01/02 04:00      0.00      6.42       111     12.41
01/02 05:00      0.00      6.47       118     12.41
01/02 06:00      0.00      6.48       120     12.33
01/02 07:00      0.00      6.50       123     12.33
01/02 08:00      0.00      6.50       123     12.33
01/02 09:00      0.00      6.47       118     12.25
01/02 10:00      0.00      6.48       120     12.49
01/02 11:00      0.00      6.48       120     12.81
01/02 12:00      0.00      6.50       123     13.29
01/02 13:00      0.00      6.54       129     13.29
01/02 14:00      0.00      6.59       137     13.29
01/02 15:00      0.00      6.59       137     13.29
01/02 16:00      0.00      6.60       138     13.29
01/02 17:00      0.00      6.55       131     13.29
01/02 18:00      0.00      6.52       126     12.81
01/02 19:00      0.00      6.48       120     12.65
01/02 20:00      0.00      6.45       115     12.65
01/02 21:00      0.00      6.43       112     12.57
01/02 22:00      0.00      6.40       108     12.57
01/02 23:00      0.00      6.36       102     12.57